Time;durP1;ratioP1;P1;durP2;ratioP2;P2;SDS_P1;SDS_P2;PMS_P1;PMS_P2;Temp;Humidity;BMP_temperature;BMP_pressure;BME280_temperature;BME280_humidity;BME280_pressure;Samples;Min_cycle;Max_cycle;Signal;HPM_P1;HPM_P2
2023/03/06 00:01:26;;;;;;;3.15;2.22;;;0.90;99.90;;;;;;7375339;19;20324;-76
2023/03/06 00:03:52;;;;;;;2.20;2.05;;;0.90;99.90;;;;;;7381334;19;20366;-78
2023/03/06 00:06:17;;;;;;;2.50;2.30;;;0.90;99.90;;;;;;7380202;19;20320;-80
2023/03/06 00:08:43;;;;;;;2.00;1.90;;;0.90;99.90;;;;;;7380196;19;20375;-78
2023/03/06 00:11:09;;;;;;;2.30;2.00;;;0.90;99.90;;;;;;7378266;19;20312;-78
2023/03/06 00:13:34;;;;;;;2.05;1.88;;;0.90;99.90;;;;;;7377226;19;20685;-79
2023/03/06 00:16:00;;;;;;;2.10;1.87;;;0.90;99.90;;;;;;7379655;19;20332;-78
2023/03/06 00:18:25;;;;;;;2.10;1.90;;;0.90;99.90;;;;;;7380535;19;20317;-80
2023/03/06 00:20:51;;;;;;;2.20;2.00;;;0.90;99.90;;;;;;7377840;19;20333;-78
2023/03/06 00:23:17;;;;;;;1.77;1.67;;;0.80;99.90;;;;;;7376914;19;20333;-81
2023/03/06 00:25:43;;;;;;;2.03;1.83;;;0.90;99.90;;;;;;7380962;19;20440;-77
2023/03/06 00:28:11;;;;;;;1.75;1.65;;;0.80;99.90;;;;;;7378926;19;20961;-78
2023/03/06 00:30:36;;;;;;;2.33;1.92;;;0.90;99.90;;;;;;7379251;19;20324;-81
2023/03/06 00:33:02;;;;;;;1.67;1.58;;;0.90;99.90;;;;;;7378990;19;20724;-77
2023/03/06 00:35:29;;;;;;;1.90;1.80;;;0.90;99.90;;;;;;7378691;19;20689;-80
2023/03/06 00:37:56;;;;;;;1.60;1.50;;;0.90;99.90;;;;;;7380222;19;20348;-79
2023/03/06 00:40:22;;;;;;;1.73;1.60;;;1.00;99.90;;;;;;7378351;19;20312;-78
2023/03/06 00:42:47;;;;;;;2.70;1.77;;;1.00;99.90;;;;;;7379955;19;20373;-78
2023/03/06 00:45:13;;;;;;;2.28;1.80;;;1.00;99.90;;;;;;7379301;19;20305;-79
2023/03/06 00:47:39;;;;;;;1.90;1.80;;;1.00;99.90;;;;;;7377986;19;20341;-79
2023/03/06 00:50:05;;;;;;;1.40;1.30;;;0.90;99.90;;;;;;7377604;19;20475;-77
2023/03/06 00:52:32;;;;;;;1.60;1.50;;;0.90;99.90;;;;;;7378625;19;20357;-77
2023/03/06 00:54:59;;;;;;;1.60;1.50;;;1.00;99.90;;;;;;7380069;19;20408;-79
2023/03/06 00:57:24;;;;;;;1.75;1.60;;;0.90;99.90;;;;;;7380742;19;20323;-80
2023/03/06 00:59:50;;;;;;;2.07;1.87;;;0.90;99.90;;;;;;7376625;19;20781;-80
2023/03/06 01:02:16;;;;;;;1.70;1.60;;;0.90;99.90;;;;;;7377945;19;20431;-77
2023/03/06 01:04:41;;;;;;;3.03;1.80;;;0.90;99.90;;;;;;7379892;19;20356;-78
2023/03/06 01:07:07;;;;;;;2.08;1.90;;;0.90;99.90;;;;;;7379980;19;20324;-78
2023/03/06 01:09:32;;;;;;;1.80;1.70;;;0.80;99.90;;;;;;7378270;19;20419;-77
2023/03/06 01:11:58;;;;;;;1.90;1.80;;;0.80;99.90;;;;;;7377792;19;20348;-80
2023/03/06 01:14:24;;;;;;;2.97;2.20;;;0.80;99.90;;;;;;7377716;19;20985;-78
2023/03/06 01:16:49;;;;;;;3.27;2.00;;;0.70;99.90;;;;;;7380387;19;21235;-83
2023/03/06 01:19:17;;;;;;;2.10;2.00;;;0.70;99.90;;;;;;7378508;19;20943;-78
2023/03/06 01:21:44;;;;;;;2.50;2.30;;;0.70;99.90;;;;;;7377806;19;20317;-81
2023/03/06 01:24:09;;;;;;;2.60;2.40;;;0.70;99.90;;;;;;7378372;19;20336;-78
2023/03/06 01:26:35;;;;;;;2.67;2.47;;;0.80;99.90;;;;;;7377379;19;20380;-80
2023/03/06 01:29:00;;;;;;;3.07;2.67;;;0.80;99.90;;;;;;7371003;19;21057;-82
2023/03/06 01:31:27;;;;;;;2.72;2.53;;;0.80;99.90;;;;;;7376820;19;20358;-78
2023/03/06 01:33:52;;;;;;;2.50;2.30;;;0.80;99.90;;;;;;7377047;19;20382;-85
2023/03/06 01:36:18;;;;;;;3.00;2.80;;;0.80;99.90;;;;;;7379278;19;20331;-83
2023/03/06 01:38:44;;;;;;;3.83;2.83;;;0.90;99.90;;;;;;7380842;19;20340;-78
2023/03/06 01:41:10;;;;;;;3.25;2.95;;;0.80;99.90;;;;;;7376705;19;20305;-78
2023/03/06 01:43:37;;;;;;;3.40;3.10;;;0.80;99.90;;;;;;7378119;19;20348;-82
2023/03/06 01:46:21;;;;;;;3.65;3.35;;;0.90;99.90;;;;;;7379281;19;20855;-83
2023/03/06 01:48:47;;;;;;;3.67;3.15;;;0.80;99.90;;;;;;7379992;19;20349;-80
2023/03/06 01:51:13;;;;;;;3.55;3.20;;;0.80;99.90;;;;;;7376689;19;20327;-79
2023/03/06 01:53:38;;;;;;;3.73;3.43;;;0.80;99.90;;;;;;7376357;19;20412;-80
2023/03/06 01:56:04;;;;;;;3.73;3.43;;;0.80;99.90;;;;;;7381072;19;20389;-79
2023/03/06 01:58:31;;;;;;;4.05;3.70;;;0.80;99.90;;;;;;7376898;19;20337;-80
2023/03/06 02:00:57;;;;;;;3.95;3.55;;;0.80;99.90;;;;;;7375226;19;20371;-79
2023/03/06 02:03:24;;;;;;;4.03;3.67;;;0.80;99.90;;;;;;7376722;19;20320;-79
2023/03/06 02:05:49;;;;;;;4.20;3.80;;;0.70;99.90;;;;;;7378565;19;20358;-80
2023/03/06 02:08:16;;;;;;;4.18;3.83;;;0.80;99.90;;;;;;7378296;19;20847;-81
2023/03/06 02:10:54;;;;;;;3.83;3.53;;;0.80;99.90;;;;;;7377537;19;20337;-81
2023/03/06 02:13:20;;;;;;;3.83;3.42;;;0.80;99.90;;;;;;7276707;19;2009831;-79
2023/03/06 02:15:50;;;;;;;4.97;3.83;;;0.80;99.90;;;;;;7377969;19;20296;-78
2023/03/06 02:18:16;;;;;;;4.53;3.93;;;0.80;99.90;;;;;;7379085;19;20325;-78
2023/03/06 02:20:49;;;;;;;4.18;3.78;;;0.80;99.90;;;;;;7378291;19;20415;-78
2023/03/06 02:23:32;;;;;;;5.37;3.97;;;0.80;99.90;;;;;;7376439;19;20416;-80
2023/03/06 02:25:58;;;;;;;4.38;3.97;;;0.80;99.90;;;;;;7275538;19;2004489;-78
2023/03/06 02:28:24;;;;;;;4.38;3.70;;;0.80;99.90;;;;;;7377553;19;20332;-78
2023/03/06 02:30:51;;;;;;;5.07;3.83;;;0.80;99.90;;;;;;7374750;19;20408;-80
2023/03/06 02:33:18;;;;;;;4.25;3.85;;;0.80;99.90;;;;;;7376537;19;20339;-77
2023/03/06 02:35:52;;;;;;;3.95;3.60;;;0.80;99.90;;;;;;7378089;19;20313;-78
2023/03/06 02:38:19;;;;;;;4.93;4.10;;;0.80;99.90;;;;;;7274377;19;2004551;-78
2023/03/06 02:40:47;;;;;;;4.35;3.80;;;0.80;99.90;;;;;;7375452;19;20355;-81
2023/03/06 02:43:14;;;;;;;4.95;4.00;;;0.80;99.90;;;;;;7376925;19;20325;-77
2023/03/06 02:45:45;;;;;;;3.83;3.42;;;0.80;99.90;;;;;;7374292;19;20404;-78
2023/03/06 02:48:11;;;;;;;4.30;3.90;;;0.90;99.90;;;;;;7376575;19;20665;-79
2023/03/06 02:50:38;;;;;;;4.57;4.00;;;0.90;99.90;;;;;;7375050;19;20357;-78
2023/03/06 02:53:05;;;;;;;4.28;3.78;;;0.90;99.90;;;;;;7375286;19;20371;-83
2023/03/06 02:55:31;;;;;;;5.78;3.70;;;0.90;99.90;;;;;;7374589;19;20337;-78
2023/03/06 02:57:56;;;;;;;3.65;3.35;;;0.90;99.90;;;;;;7376725;19;20312;-80
2023/03/06 03:00:29;;;;;;;3.75;3.45;;;0.90;99.90;;;;;;7372976;19;20360;-78
2023/03/06 03:02:56;;;;;;;4.22;3.83;;;0.90;99.90;;;;;;7374848;19;20343;-78
2023/03/06 03:05:21;;;;;;;4.03;3.70;;;1.00;99.90;;;;;;7377078;19;20384;-78
2023/03/06 03:07:55;;;;;;;5.70;3.50;;;1.00;99.90;;;;;;7374915;19;20319;-78
2023/03/06 03:10:21;;;;;;;3.80;3.42;;;1.00;99.90;;;;;;7375644;19;20331;-78
2023/03/06 03:12:47;;;;;;;3.90;3.50;;;1.00;99.90;;;;;;7382847;19;20415;-77
2023/03/06 03:15:12;;;;;;;3.75;3.45;;;1.00;99.90;;;;;;7383236;19;20336;-84
2023/03/06 03:17:39;;;;;;;3.73;3.43;;;1.00;99.90;;;;;;7384341;19;20396;-79
2023/03/06 03:20:06;;;;;;;5.45;3.53;;;1.00;99.90;;;;;;7380969;19;20374;-80
2023/03/06 03:22:34;;;;;;;3.28;3.08;;;1.00;99.90;;;;;;7379694;19;20341;-83
2023/03/06 03:24:59;;;;;;;4.80;3.40;;;1.10;99.90;;;;;;7380219;19;20803;-80
2023/03/06 03:27:25;;;;;;;4.63;3.57;;;1.10;99.90;;;;;;7381459;19;20296;-80
2023/03/06 03:29:51;;;;;;;4.95;3.25;;;1.10;99.90;;;;;;7379676;19;20348;-80
2023/03/06 03:32:17;;;;;;;3.72;3.42;;;1.10;99.90;;;;;;7382700;19;20312;-80
2023/03/06 03:34:43;;;;;;;3.85;3.45;;;1.10;99.90;;;;;;7384614;19;20335;-79
2023/03/06 03:37:09;;;;;;;5.40;3.40;;;1.10;99.90;;;;;;7383544;19;20316;-80
2023/03/06 03:39:36;;;;;;;4.30;3.80;;;1.00;99.90;;;;;;7380750;19;20360;-78
2023/03/06 03:42:03;;;;;;;4.30;3.90;;;1.00;99.90;;;;;;7380791;19;20340;-81
2023/03/06 03:44:28;;;;;;;4.15;3.75;;;1.00;99.90;;;;;;7383674;19;21126;-78
2023/03/06 03:46:54;;;;;;;3.75;3.22;;;1.10;99.90;;;;;;7381152;19;20365;-79
2023/03/06 03:49:21;;;;;;;3.33;3.03;;;1.10;99.90;;;;;;7381815;19;20340;-78
2023/03/06 03:51:47;;;;;;;4.03;3.43;;;1.10;99.90;;;;;;7382635;19;20344;-80
2023/03/06 03:54:13;;;;;;;3.87;3.47;;;1.10;99.90;;;;;;7384293;19;20309;-82
2023/03/06 03:56:43;;;;;;;4.40;4.00;;;1.10;99.90;;;;;;7382878;19;20344;-81
2023/03/06 03:59:14;;;;;;;4.40;3.97;;;1.10;99.90;;;;;;7383035;19;20356;-78
2023/03/06 04:01:49;;;;;;;4.13;3.70;;;1.10;99.90;;;;;;7278922;19;2004426;-80
2023/03/06 04:04:14;;;;;;;5.43;4.17;;;1.10;99.90;;;;;;7382006;19;20312;-78
2023/03/06 04:06:42;;;;;;;4.70;3.95;;;1.10;99.90;;;;;;7382646;19;20332;-79
2023/03/06 04:09:08;;;;;;;5.25;3.88;;;1.10;99.90;;;;;;7383819;19;20685;-83
2023/03/06 04:11:34;;;;;;;5.40;4.00;;;1.10;99.90;;;;;;7379721;19;20316;-78
2023/03/06 04:14:00;;;;;;;4.82;4.38;;;1.10;99.90;;;;;;7380218;19;20587;-78
2023/03/06 04:16:26;;;;;;;4.63;4.13;;;1.10;99.90;;;;;;7383262;19;20344;-79
2023/03/06 04:18:51;;;;;;;4.83;4.37;;;1.10;99.90;;;;;;7381552;19;20391;-80
2023/03/06 04:21:19;;;;;;;5.22;4.00;;;1.10;99.90;;;;;;7376514;19;20658;-79
2023/03/06 04:23:44;;;;;;;7.80;4.20;;;1.10;99.90;;;;;;7382023;19;20320;-79
2023/03/06 04:26:10;;;;;;;5.18;3.97;;;1.20;99.90;;;;;;7379373;19;20317;-82
2023/03/06 04:28:37;;;;;;;4.43;4.03;;;1.10;99.90;;;;;;7381670;19;20312;-79
2023/03/06 04:31:03;;;;;;;4.67;4.10;;;1.10;99.90;;;;;;7378875;19;20336;-79
2023/03/06 04:33:30;;;;;;;4.73;4.33;;;1.10;99.90;;;;;;7379426;19;20324;-80
2023/03/06 04:35:57;;;;;;;5.90;4.20;;;1.10;99.90;;;;;;7381837;19;20348;-81
2023/03/06 04:38:26;;;;;;;4.85;4.38;;;1.10;99.90;;;;;;7380627;19;20324;-82
2023/03/06 04:40:53;;;;;;;4.35;3.95;;;1.10;99.90;;;;;;7380330;19;20351;-79
2023/03/06 04:43:18;;;;;;;4.07;3.72;;;1.10;99.90;;;;;;7381169;19;20348;-80
2023/03/06 04:45:44;;;;;;;4.45;3.97;;;1.10;99.90;;;;;;7382741;19;20336;-82
2023/03/06 04:48:13;;;;;;;5.83;4.63;;;1.10;99.90;;;;;;7381231;19;20351;-79
2023/03/06 04:50:38;;;;;;;4.88;4.15;;;1.10;99.90;;;;;;7377305;19;21361;-84
2023/03/06 04:53:04;;;;;;;4.40;4.00;;;1.10;99.90;;;;;;7377773;19;20455;-80
2023/03/06 04:55:29;;;;;;;5.47;4.70;;;1.10;99.90;;;;;;7380997;19;20867;-80
2023/03/06 04:57:55;;;;;;;5.20;4.07;;;1.10;99.90;;;;;;7380093;19;20433;-79
2023/03/06 05:00:23;;;;;;;5.00;4.50;;;1.10;99.90;;;;;;7376899;19;21615;-78
2023/03/06 05:02:48;;;;;;;6.22;5.15;;;1.10;99.90;;;;;;7379433;19;20352;-82
2023/03/06 05:05:14;;;;;;;5.67;5.10;;;1.10;99.90;;;;;;7383801;19;20320;-81
2023/03/06 05:07:40;;;;;;;5.33;4.83;;;1.10;99.90;;;;;;7381780;19;20293;-79
2023/03/06 05:10:06;;;;;;;6.13;5.13;;;1.10;99.90;;;;;;7379133;19;20340;-82
2023/03/06 05:12:36;;;;;;;6.00;5.00;;;1.10;99.90;;;;;;7378955;19;20330;-82
2023/03/06 05:15:03;;;;;;;5.85;5.25;;;1.20;99.90;;;;;;7381444;19;20357;-79
2023/03/06 05:17:28;;;;;;;8.40;5.40;;;1.10;99.90;;;;;;7380037;19;20358;-78
2023/03/06 05:19:54;;;;;;;6.80;5.20;;;1.10;99.90;;;;;;7378422;19;20457;-79
2023/03/06 05:22:20;;;;;;;8.23;6.07;;;1.10;99.90;;;;;;7379458;19;20308;-79
2023/03/06 05:24:45;;;;;;;7.10;6.00;;;1.10;99.90;;;;;;7381345;19;20435;-77
2023/03/06 05:27:11;;;;;;;6.15;5.50;;;1.10;99.90;;;;;;7377495;19;20863;-81
2023/03/06 05:29:36;;;;;;;9.07;6.10;;;1.10;99.90;;;;;;7377226;19;20428;-78
2023/03/06 05:32:02;;;;;;;6.25;5.57;;;1.10;99.90;;;;;;7376864;19;20357;-78
2023/03/06 05:34:28;;;;;;;6.43;5.77;;;1.10;99.90;;;;;;7377865;19;20319;-79
2023/03/06 05:36:53;;;;;;;6.57;5.90;;;1.20;99.90;;;;;;7378808;19;20424;-81
2023/03/06 05:39:19;;;;;;;8.33;6.40;;;1.20;99.90;;;;;;7378948;19;20336;-80
2023/03/06 05:41:46;;;;;;;7.30;5.70;;;1.10;99.90;;;;;;7382915;19;20321;-81
2023/03/06 05:44:11;;;;;;;7.63;6.05;;;1.10;99.90;;;;;;7384577;19;20721;-77
2023/03/06 05:46:37;;;;;;;7.53;5.83;;;1.20;99.90;;;;;;7383327;19;20396;-79
2023/03/06 05:49:04;;;;;;;8.02;6.25;;;1.20;99.90;;;;;;7382914;19;20316;-78
2023/03/06 05:51:39;;;;;;;6.63;5.60;;;1.20;99.90;;;;;;7381774;19;20653;-86
2023/03/06 05:54:05;;;;;;;7.35;6.22;;;1.20;99.90;;;;;;7381077;19;20749;-82
2023/03/06 05:56:30;;;;;;;6.63;5.75;;;1.30;99.90;;;;;;7384168;19;20328;-81
2023/03/06 05:58:56;;;;;;;6.40;5.70;;;1.20;99.90;;;;;;7380588;19;20958;-82
2023/03/06 06:01:24;;;;;;;8.82;7.75;;;1.20;99.90;;;;;;7378911;19;20304;-80
2023/03/06 06:03:49;;;;;;;6.95;6.00;;;1.30;99.90;;;;;;7380410;19;20355;-79
2023/03/06 06:06:15;;;;;;;6.55;5.72;;;1.20;99.90;;;;;;7380207;19;20309;-79
2023/03/06 06:08:41;;;;;;;7.27;5.83;;;1.30;99.90;;;;;;7379853;19;20325;-79
2023/03/06 06:11:07;;;;;;;6.87;5.73;;;1.20;99.90;;;;;;7378807;19;20349;-79
2023/03/06 06:13:33;;;;;;;8.73;6.60;;;1.20;99.90;;;;;;7380501;19;20323;-81
2023/03/06 06:15:58;;;;;;;7.35;5.93;;;1.20;99.90;;;;;;7381465;19;20300;-88
2023/03/06 06:18:24;;;;;;;7.60;6.10;;;1.30;99.90;;;;;;7384114;19;20321;-88
2023/03/06 06:20:50;;;;;;;7.10;6.05;;;1.20;99.90;;;;;;7378937;19;20361;-86
2023/03/06 06:23:15;;;;;;;7.65;6.40;;;1.30;99.90;;;;;;7386392;19;20327;-86
2023/03/06 06:25:41;;;;;;;8.10;6.23;;;1.30;99.90;;;;;;7389372;19;20794;-80
2023/03/06 06:28:06;;;;;;;8.63;6.18;;;1.30;99.90;;;;;;7390339;19;20340;-86
2023/03/06 06:30:32;;;;;;;7.07;6.37;;;1.30;99.90;;;;;;7390739;19;20328;-93
2023/03/06 06:32:58;;;;;;;7.37;6.40;;;1.30;99.90;;;;;;7393763;19;20389;-91
2023/03/06 06:35:24;;;;;;;7.53;6.38;;;1.30;99.90;;;;;;7395208;19;20396;-87
2023/03/06 06:37:49;;;;;;;6.90;6.20;;;1.40;99.90;;;;;;7393620;19;20347;-84
2023/03/06 06:40:15;;;;;;;7.63;6.63;;;1.40;99.90;;;;;;7393898;19;20824;-90
2023/03/06 06:42:41;;;;;;;8.43;6.20;;;1.40;99.90;;;;;;7395343;19;20934;-92
2023/03/06 06:45:09;;;;;;;6.87;6.17;;;1.40;99.90;;;;;;7393869;19;20411;-89
2023/03/06 06:47:39;;;;;;;7.38;6.20;;;1.40;99.90;;;;;;7392664;19;20348;-91
2023/03/06 06:50:06;;;;;;;8.48;6.13;;;1.40;99.90;;;;;;7390473;19;20332;-94
2023/03/06 06:52:32;;;;;;;7.93;6.40;;;1.40;99.90;;;;;;7389936;19;20313;-89
2023/03/06 06:54:57;;;;;;;7.40;6.60;;;1.40;99.90;;;;;;7394871;19;20669;-92
2023/03/06 06:57:23;;;;;;;7.20;6.40;;;1.40;99.90;;;;;;7393513;19;21216;-88
2023/03/06 06:59:49;;;;;;;8.10;6.97;;;1.40;99.90;;;;;;7389278;19;20361;-92
2023/03/06 07:02:15;;;;;;;8.00;6.47;;;1.50;99.90;;;;;;7388882;19;20702;-83
2023/03/06 07:04:40;;;;;;;8.35;6.30;;;1.50;99.90;;;;;;7388340;19;20312;-87
2023/03/06 07:07:06;;;;;;;7.45;6.43;;;1.50;99.90;;;;;;7392217;19;20352;-85
2023/03/06 07:09:32;;;;;;;8.30;6.53;;;1.60;99.90;;;;;;7389015;19;20351;-80
2023/03/06 07:11:57;;;;;;;7.15;6.45;;;1.60;99.90;;;;;;7390665;19;20408;-84
2023/03/06 07:14:23;;;;;;;8.27;7.17;;;1.50;99.90;;;;;;7389263;19;21168;-93
2023/03/06 07:16:49;;;;;;;7.15;6.45;;;1.60;99.90;;;;;;7392657;19;20352;-86
2023/03/06 07:19:14;;;;;;;9.10;7.15;;;1.60;99.90;;;;;;7391912;19;20330;-87
2023/03/06 07:21:40;;;;;;;8.30;7.00;;;1.60;99.90;;;;;;7388478;19;20317;-93
2023/03/06 07:24:06;;;;;;;9.52;7.65;;;1.60;99.90;;;;;;7391986;19;20420;-90
2023/03/06 07:26:31;;;;;;;8.00;6.63;;;1.70;99.90;;;;;;7390773;19;20333;-83
2023/03/06 07:28:57;;;;;;;8.27;7.18;;;1.70;99.90;;;;;;7385753;19;20348;-82
2023/03/06 07:31:24;;;;;;;7.93;6.47;;;1.70;99.90;;;;;;7378041;19;20316;-83
2023/03/06 07:33:50;;;;;;;8.25;6.50;;;1.60;99.90;;;;;;7380684;19;20413;-81
2023/03/06 07:36:16;;;;;;;7.53;6.70;;;1.60;99.90;;;;;;7383620;19;20346;-80
2023/03/06 07:38:42;;;;;;;8.18;6.97;;;1.70;99.90;;;;;;7379037;19;20329;-89
2023/03/06 07:41:12;;;;;;;7.87;6.93;;;1.70;99.90;;;;;;7385194;19;20345;-83
2023/03/06 07:43:41;;;;;;;9.50;6.65;;;1.70;99.90;;;;;;7383181;19;20749;-80
2023/03/06 07:46:07;;;;;;;7.80;6.90;;;1.80;99.90;;;;;;7379336;19;20348;-92
2023/03/06 07:48:33;;;;;;;8.52;6.95;;;1.70;99.90;;;;;;7378489;19;20316;-84
2023/03/06 07:51:03;;;;;;;8.60;6.80;;;1.70;99.90;;;;;;7375455;19;20349;-85
2023/03/06 07:53:29;;;;;;;8.90;7.25;;;1.70;99.90;;;;;;7375765;19;21154;-80
2023/03/06 07:56:00;;;;;;;9.27;7.33;;;1.80;99.90;;;;;;7379637;19;20333;-87
2023/03/06 07:58:26;;;;;;;8.02;7.22;;;1.70;99.90;;;;;;7394494;19;20321;-87
2023/03/06 08:00:51;;;;;;;9.02;6.90;;;1.80;99.90;;;;;;7400042;19;20340;-94
2023/03/06 08:03:17;;;;;;;10.47;7.60;;;1.80;99.90;;;;;;7399216;19;20657;-86
2023/03/06 08:05:43;;;;;;;8.52;7.20;;;1.90;99.90;;;;;;7401440;19;20381;-86
2023/03/06 08:08:09;;;;;;;9.57;7.18;;;2.00;99.90;;;;;;7401111;19;20345;-91
2023/03/06 08:10:35;;;;;;;7.68;6.38;;;2.00;99.90;;;;;;7400187;19;20332;-84
2023/03/06 08:13:06;;;;;;;7.37;6.53;;;2.20;99.90;;;;;;7399167;19;20357;-89
2023/03/06 08:15:32;;;;;;;8.45;6.88;;;2.20;99.90;;;;;;7400241;19;20321;-88
2023/03/06 08:17:57;;;;;;;8.63;7.07;;;2.20;99.90;;;;;;7398263;19;20392;-87
2023/03/06 08:20:23;;;;;;;7.50;6.70;;;2.30;99.90;;;;;;7395995;19;20316;-92
2023/03/06 08:22:48;;;;;;;8.73;7.37;;;2.30;99.90;;;;;;7397372;19;20903;-92
2023/03/06 08:25:14;;;;;;;9.57;7.30;;;2.30;99.90;;;;;;7396912;19;20339;-89
2023/03/06 08:27:40;;;;;;;10.30;8.00;;;2.30;99.90;;;;;;7398671;19;20317;-80
2023/03/06 08:30:06;;;;;;;9.23;8.02;;;2.40;99.90;;;;;;7391844;19;20345;-82
2023/03/06 08:32:35;;;;;;;10.33;7.60;;;2.60;99.90;;;;;;7393621;19;20903;-91
2023/03/06 08:35:02;;;;;;;9.63;7.28;;;2.60;99.90;;;;;;7394062;19;20345;-95
2023/03/06 08:37:27;;;;;;;9.20;7.90;;;2.70;99.90;;;;;;7397141;19;20336;-88
2023/03/06 08:39:53;;;;;;;9.57;7.93;;;2.60;99.90;;;;;;7395315;19;21206;-95
2023/03/06 08:42:18;;;;;;;8.95;6.90;;;2.80;99.90;;;;;;7397308;19;20376;-93
2023/03/06 08:44:44;;;;;;;11.40;7.60;;;2.80;99.90;;;;;;7399008;19;20384;-87
2023/03/06 08:47:10;;;;;;;8.88;7.07;;;2.80;99.90;;;;;;7398602;19;20344;-90
2023/03/06 08:49:38;;;;;;;8.33;7.07;;;2.80;99.90;;;;;;7398384;19;20317;-82
2023/03/06 08:52:04;;;;;;;18.30;14.00;;;2.70;99.90;;;;;;7401420;19;20348;-89
2023/03/06 08:54:38;;;;;;;7.55;6.75;;;2.80;99.90;;;;;;7400387;19;20300;-87
2023/03/06 08:57:03;;;;;;;10.10;7.32;;;2.70;99.90;;;;;;7400831;19;20368;-91
2023/03/06 08:59:29;;;;;;;11.27;7.97;;;2.80;99.90;;;;;;7396002;19;20324;-87
2023/03/06 09:01:55;;;;;;;9.05;6.88;;;2.80;99.90;;;;;;7399562;19;20494;-88
2023/03/06 09:04:21;;;;;;;9.13;7.17;;;2.80;99.90;;;;;;7402423;19;20329;-86
2023/03/06 09:06:47;;;;;;;8.47;6.83;;;2.80;99.90;;;;;;7403754;19;21148;-90
2023/03/06 09:09:13;;;;;;;9.80;7.15;;;2.80;99.90;;;;;;7379907;19;20321;-89
2023/03/06 09:11:39;;;;;;;11.25;7.75;;;2.80;99.90;;;;;;7405085;19;20648;-82
2023/03/06 09:14:04;;;;;;;8.43;7.15;;;2.90;99.90;;;;;;7403072;19;20349;-90
2023/03/06 09:16:30;;;;;;;8.83;7.33;;;2.90;99.90;;;;;;7403632;19;20324;-89
2023/03/06 09:18:57;;;;;;;9.10;7.40;;;3.00;99.90;;;;;;7404017;19;20367;-86
2023/03/06 09:21:23;;;;;;;9.27;7.20;;;3.00;99.90;;;;;;7400185;19;20389;-91
2023/03/06 09:23:49;;;;;;;8.07;7.28;;;3.10;99.90;;;;;;7386527;19;20320;-89
2023/03/06 09:26:15;;;;;;;9.93;7.90;;;3.20;99.90;;;;;;7408710;19;20316;-88
2023/03/06 09:28:40;;;;;;;9.67;7.47;;;3.30;99.90;;;;;;7404290;19;20336;-90
2023/03/06 09:31:10;;;;;;;8.07;6.95;;;3.30;99.90;;;;;;7397278;19;20357;-90
2023/03/06 09:33:36;;;;;;;8.52;6.70;;;3.20;99.90;;;;;;7402922;19;20351;-91
2023/03/06 09:36:01;;;;;;;8.80;7.00;;;3.30;99.90;;;;;;7400204;19;20344;-92
2023/03/06 09:38:27;;;;;;;9.37;7.53;;;3.30;99.90;;;;;;7404977;19;20325;-87
2023/03/06 09:41:00;;;;;;;8.85;7.43;;;3.30;99.90;;;;;;7406076;19;20341;-91
2023/03/06 09:43:36;;;;;;;7.55;6.72;;;3.30;99.90;;;;;;7398937;19;20372;-88
2023/03/06 09:46:41;;;;;;;11.27;7.85;;;3.30;99.90;;;;;;7399471;19;20333;-90
2023/03/06 09:49:44;;;;;;;8.70;7.05;;;3.30;99.90;;;;;;7288793;19;2004678;-90
2023/03/06 09:52:29;;;;;;;9.93;7.65;;;3.30;99.90;;;;;;7287030;19;2004444;-94
2023/03/06 09:55:10;;;;;;;8.63;6.90;;;3.30;99.90;;;;;;7288786;19;2004709;-90
2023/03/06 09:57:56;;;;;;;11.80;9.18;;;3.30;99.90;;;;;;7399006;19;20367;-90
2023/03/06 10:00:58;;;;;;;10.57;8.10;;;3.30;99.90;;;;;;7289765;19;2004149;-91
2023/03/06 10:04:05;;;;;;;9.60;7.80;;;3.40;99.90;;;;;;7292492;19;2005953;-86
2023/03/06 10:06:40;;;;;;;12.18;8.07;;;3.50;99.90;;;;;;7295701;19;2004563;-92
2023/03/06 10:09:32;;;;;;;14.05;9.95;;;3.70;99.90;;;;;;7394567;19;20349;-88
2023/03/06 10:11:58;;;;;;;11.83;8.83;;;3.50;99.90;;;;;;7288804;19;2004189;-91
2023/03/06 10:14:45;;;;;;;10.75;8.07;;;3.50;99.90;;;;;;7395080;19;20762;-92
2023/03/06 10:17:18;;;;;;;12.33;9.73;;;3.70;99.90;;;;;;7394462;19;20368;-89
2023/03/06 10:19:46;;;;;;;10.13;8.20;;;3.70;99.90;;;;;;7392185;19;21188;-83
2023/03/06 10:22:32;;;;;;;11.82;8.65;;;3.80;99.90;;;;;;7392540;19;20329;-91
2023/03/06 10:25:29;;;;;;;11.82;9.10;;;3.80;99.90;;;;;;7292222;19;2019832;-90
2023/03/06 10:28:14;;;;;;;12.27;8.40;;;3.70;99.90;;;;;;7288025;19;2004494;-86
2023/03/06 10:31:06;;;;;;;14.20;9.35;;;3.70;99.90;;;;;;7389042;19;20313;-92
2023/03/06 10:33:54;;;;;;;16.52;12.07;;;3.60;99.90;;;;;;7285345;19;2004522;-86
2023/03/06 10:36:26;;;;;;;11.73;9.52;;;3.50;99.90;;;;;;7385778;19;20323;-83
2023/03/06 10:38:51;;;;;;;15.53;10.17;;;3.50;99.90;;;;;;7278574;19;2004521;-85
2023/03/06 10:41:22;;;;;;;12.37;10.13;;;3.30;99.90;;;;;;7379833;19;20414;-84
2023/03/06 10:44:03;;;;;;;14.85;10.27;;;3.50;99.90;;;;;;7389949;19;20855;-93
2023/03/06 10:46:30;;;;;;;18.40;12.10;;;3.50;99.90;;;;;;7294680;19;2004481;-93
2023/03/06 10:48:57;;;;;;;14.90;10.55;;;3.50;99.90;;;;;;7398491;19;20336;-89
2023/03/06 10:51:23;;;;;;;12.57;10.00;;;3.50;99.90;;;;;;7396376;19;20317;-90
2023/03/06 10:53:55;;;;;;;17.50;11.65;;;3.30;99.90;;;;;;7406852;19;21290;-83
2023/03/06 10:56:31;;;;;;;14.25;10.45;;;3.40;99.90;;;;;;7410390;19;20343;-88
2023/03/06 10:59:10;;;;;;;13.30;10.07;;;3.50;99.90;;;;;;7303924;19;2004377;-91
2023/03/06 11:01:36;;;;;;;12.60;9.98;;;3.50;99.90;;;;;;7405355;19;20331;-85
2023/03/06 11:04:30;;;;;;;12.75;9.18;;;3.40;99.90;;;;;;7407722;19;20331;-86
2023/03/06 11:07:14;;;;;;;11.17;9.50;;;3.60;99.90;;;;;;7302362;19;2019738;-91
2023/03/06 11:09:46;;;;;;;10.07;8.32;;;3.70;99.90;;;;;;7406951;19;20364;-85
2023/03/06 11:12:27;;;;;;;13.25;10.02;;;3.80;99.90;;;;;;7407365;19;20338;-87
2023/03/06 11:15:08;;;;;;;11.60;9.70;;;3.90;99.90;;;;;;7306335;19;2004179;-87
2023/03/06 11:17:36;;;;;;;10.95;8.18;;;4.00;99.90;;;;;;7403626;19;20316;-81
2023/03/06 11:20:21;;;;;;;11.80;9.60;;;3.90;99.90;;;;;;7400486;19;20352;-88
2023/03/06 11:23:04;;;;;;;11.68;9.10;;;3.90;99.90;;;;;;7399806;19;20919;-89
2023/03/06 11:25:38;;;;;;;11.40;8.60;;;3.80;99.90;;;;;;7301488;19;2020023;-90
2023/03/06 11:28:24;;;;;;;11.65;9.00;;;3.90;99.90;;;;;;7407497;19;20345;-87
2023/03/06 11:30:53;;;;;;;10.13;8.25;;;3.90;99.90;;;;;;7406006;19;20321;-87
2023/03/06 11:33:25;;;;;;;10.93;8.50;;;3.90;99.90;;;;;;7407492;19;20420;-90
2023/03/06 11:36:16;;;;;;;10.43;8.47;;;3.90;99.90;;;;;;7398768;19;20366;-91
2023/03/06 11:38:52;;;;;;;9.60;8.50;;;3.90;99.90;;;;;;7298073;19;2004329;-93
2023/03/06 11:41:36;;;;;;;10.45;8.43;;;3.90;99.90;;;;;;7398329;19;20328;-91
2023/03/06 11:44:12;;;;;;;10.65;9.27;;;3.90;99.90;;;;;;7293256;19;2004358;-91
2023/03/06 11:46:40;;;;;;;10.93;8.40;;;3.80;99.90;;;;;;7399479;19;20341;-92
2023/03/06 11:49:26;;;;;;;13.50;9.93;;;3.80;99.90;;;;;;7397683;19;20327;-92
2023/03/06 11:51:55;;;;;;;11.35;9.00;;;3.80;99.90;;;;;;7294592;19;2017614;-83
2023/03/06 11:54:21;;;;;;;11.93;9.20;;;3.80;99.90;;;;;;7401203;19;20810;-89
2023/03/06 11:56:55;;;;;;;12.97;9.57;;;3.90;99.90;;;;;;7399627;19;20756;-88
2023/03/06 11:59:46;;;;;;;11.73;9.70;;;3.80;99.90;;;;;;7400742;19;20316;-89
2023/03/06 12:02:17;;;;;;;10.50;8.75;;;3.70;99.90;;;;;;7300942;19;2004268;-87
2023/03/06 12:04:47;;;;;;;11.07;9.82;;;3.70;99.90;;;;;;7401258;19;20301;-92
2023/03/06 12:07:34;;;;;;;12.85;10.25;;;3.70;99.90;;;;;;7402147;19;20326;-87
2023/03/06 12:10:22;;;;;;;13.75;9.95;;;3.80;99.90;;;;;;7299001;19;2004499;-90
2023/03/06 12:13:23;;;;;;;11.68;8.75;;;4.10;99.90;;;;;;7396961;19;20320;-86
2023/03/06 12:15:55;;;;;;;10.63;8.60;;;4.20;99.90;;;;;;7287524;19;2004274;-80
2023/03/06 12:18:33;;;;;;;10.20;8.50;;;4.40;99.90;;;;;;7388307;19;20345;-86
2023/03/06 12:21:14;;;;;;;8.85;7.53;;;4.50;99.90;;;;;;7284431;19;2004327;-87
2023/03/06 12:23:52;;;;;;;11.40;7.28;;;4.40;99.90;;;;;;7387487;19;20348;-90
2023/03/06 12:26:28;;;;;;;8.75;7.10;;;4.40;99.90;;;;;;7393205;19;20341;-93
2023/03/06 12:29:17;;;;;;;7.70;6.80;;;4.50;99.90;;;;;;7288678;19;2004226;-91
2023/03/06 12:32:22;;;;;;;9.20;6.40;;;4.50;99.90;;;;;;7385937;19;20309;-80
2023/03/06 12:35:03;;;;;;;8.18;6.80;;;4.20;99.90;;;;;;7287912;19;2004261;-87
2023/03/06 12:37:51;;;;;;;8.93;6.68;;;4.20;99.90;;;;;;7286841;19;2004551;-90
2023/03/06 12:40:44;;;;;;;9.88;7.45;;;3.80;99.90;;;;;;7384554;19;20313;-84
2023/03/06 12:43:34;;;;;;;11.20;9.02;;;3.40;99.90;;;;;;7280805;19;2004390;-84
2023/03/06 12:46:10;;;;;;;9.68;8.10;;;2.90;99.90;;;;;;7282554;19;2004287;-82
2023/03/06 12:48:35;;;;;;;11.25;8.73;;;2.80;99.90;;;;;;7380964;19;20332;-81
2023/03/06 12:51:01;;;;;;;9.23;8.10;;;2.70;99.90;;;;;;7379500;19;20325;-81
2023/03/06 12:53:30;;;;;;;9.40;8.13;;;2.70;99.90;;;;;;7378853;19;20341;-90
2023/03/06 12:55:57;;;;;;;10.23;8.67;;;2.90;99.90;;;;;;7389755;19;20357;-88
2023/03/06 12:58:31;;;;;;;10.00;8.65;;;3.20;99.90;;;;;;7400125;19;20348;-88
2023/03/06 13:01:05;;;;;;;10.02;7.93;;;3.00;99.90;;;;;;7399663;19;20335;-91
2023/03/06 13:03:50;;;;;;;10.45;8.27;;;3.10;99.90;;;;;;7398861;19;20316;-92
2023/03/06 13:06:25;;;;;;;10.15;8.07;;;3.00;99.90;;;;;;7394772;19;20316;-87